Terminal Aerodrome Forecast
Issued by NWS

Home | Current Version | Previous Version | Text Only | Print | Product List | Glossary On
Versions: 1 2 3 4 5 6 7 8 9 10 11 12 13 14 15 16 17
000
FTUS45 KABQ 252100 AAA
TAFFMN
TAF AMD
KFMN 252147Z 2522/2618 29011G18KT P6SM SCT100 BKN150
     FM260000 29010G18KT P6SM VCSH SCT090 BKN120
     FM260200 03005KT P6SM SCT110 BKN200=

USA.gov is the U.S. government's official web portal to all federal, state and local government web resources and services.